sensor_id;sensor_type;location;lat;lon;timestamp;P1;durP1;ratioP1;P2;durP2;ratioP2
78889;SDS011;68279;48.964;14.502;2024-03-23T00:56:03;9.70;;;5.60;;
78889;SDS011;68279;48.964;14.502;2024-03-23T00:58:29;9.95;;;5.45;;
78889;SDS011;68279;48.964;14.502;2024-03-23T01:00:54;8.70;;;4.38;;
78889;SDS011;68279;48.964;14.502;2024-03-23T01:03:20;6.93;;;4.43;;
78889;SDS011;68279;48.964;14.502;2024-03-23T01:05:46;9.02;;;4.55;;
78889;SDS011;68279;48.964;14.502;2024-03-23T01:08:11;8.73;;;4.60;;
78889;SDS011;68279;48.964;14.502;2024-03-23T01:10:37;7.50;;;4.07;;
78889;SDS011;68279;48.964;14.502;2024-03-23T01:13:02;6.68;;;4.28;;
78889;SDS011;68279;48.964;14.502;2024-03-23T01:15:28;8.63;;;3.90;;
78889;SDS011;68279;48.964;14.502;2024-03-23T01:17:54;7.43;;;4.80;;
78889;SDS011;68279;48.964;14.502;2024-03-23T01:20:19;8.05;;;5.05;;
78889;SDS011;68279;48.964;14.502;2024-03-23T01:22:45;7.82;;;4.38;;
78889;SDS011;68279;48.964;14.502;2024-03-23T01:25:11;7.68;;;4.30;;
78889;SDS011;68279;48.964;14.502;2024-03-23T01:27:36;8.02;;;4.07;;
78889;SDS011;68279;48.964;14.502;2024-03-23T01:30:02;8.48;;;4.18;;
78889;SDS011;68279;48.964;14.502;2024-03-23T01:32:27;5.60;;;3.72;;
78889;SDS011;68279;48.964;14.502;2024-03-23T01:34:53;10.30;;;5.13;;
78889;SDS011;68279;48.964;14.502;2024-03-23T01:37:19;10.95;;;4.10;;
78889;SDS011;68279;48.964;14.502;2024-03-23T01:39:44;7.55;;;4.07;;
78889;SDS011;68279;48.964;14.502;2024-03-23T01:42:10;10.57;;;4.43;;
78889;SDS011;68279;48.964;14.502;2024-03-23T01:44:36;9.00;;;4.70;;
78889;SDS011;68279;48.964;14.502;2024-03-23T01:47:01;10.13;;;5.22;;
78889;SDS011;68279;48.964;14.502;2024-03-23T01:49:27;6.95;;;4.22;;
78889;SDS011;68279;48.964;14.502;2024-03-23T01:51:53;8.55;;;4.22;;
78889;SDS011;68279;48.964;14.502;2024-03-23T01:54:19;9.00;;;4.28;;
78889;SDS011;68279;48.964;14.502;2024-03-23T01:56:45;8.27;;;4.80;;
78889;SDS011;68279;48.964;14.502;2024-03-23T01:59:11;8.80;;;4.50;;
78889;SDS011;68279;48.964;14.502;2024-03-23T02:01:36;7.60;;;4.35;;
78889;SDS011;68279;48.964;14.502;2024-03-23T02:04:02;7.88;;;4.07;;
78889;SDS011;68279;48.964;14.502;2024-03-23T02:06:28;8.48;;;4.15;;
78889;SDS011;68279;48.964;14.502;2024-03-23T02:08:54;8.35;;;4.88;;
78889;SDS011;68279;48.964;14.502;2024-03-23T02:11:20;9.10;;;5.00;;
78889;SDS011;68279;48.964;14.502;2024-03-23T02:13:45;8.93;;;4.63;;
78889;SDS011;68279;48.964;14.502;2024-03-23T02:16:11;6.97;;;4.40;;
78889;SDS011;68279;48.964;14.502;2024-03-23T02:18:38;7.15;;;4.15;;
78889;SDS011;68279;48.964;14.502;2024-03-23T02:21:04;7.50;;;3.67;;
78889;SDS011;68279;48.964;14.502;2024-03-23T02:23:30;7.35;;;4.40;;
78889;SDS011;68279;48.964;14.502;2024-03-23T02:25:55;6.94;;;3.56;;
78889;SDS011;68279;48.964;14.502;2024-03-23T02:28:21;9.60;;;4.78;;
78889;SDS011;68279;48.964;14.502;2024-03-23T02:30:50;9.45;;;4.75;;
78889;SDS011;68279;48.964;14.502;2024-03-23T02:33:15;6.40;;;3.72;;
78889;SDS011;68279;48.964;14.502;2024-03-23T02:35:41;11.43;;;4.15;;
78889;SDS011;68279;48.964;14.502;2024-03-23T02:38:07;6.38;;;4.00;;
78889;SDS011;68279;48.964;14.502;2024-03-23T02:40:33;6.85;;;4.07;;
78889;SDS011;68279;48.964;14.502;2024-03-23T02:42:59;6.00;;;3.47;;
78889;SDS011;68279;48.964;14.502;2024-03-23T02:45:24;7.40;;;3.92;;
78889;SDS011;68279;48.964;14.502;2024-03-23T02:47:50;9.32;;;4.53;;
78889;SDS011;68279;48.964;14.502;2024-03-23T02:50:18;8.70;;;3.78;;
78889;SDS011;68279;48.964;14.502;2024-03-23T02:52:44;7.72;;;3.92;;
78889;SDS011;68279;48.964;14.502;2024-03-23T02:55:09;7.97;;;4.57;;
78889;SDS011;68279;48.964;14.502;2024-03-23T02:57:35;7.53;;;3.88;;
78889;SDS011;68279;48.964;14.502;2024-03-23T03:00:01;9.70;;;4.25;;
78889;SDS011;68279;48.964;14.502;2024-03-23T03:02:26;7.35;;;4.20;;
78889;SDS011;68279;48.964;14.502;2024-03-23T03:04:52;7.97;;;4.45;;
78889;SDS011;68279;48.964;14.502;2024-03-23T03:07:17;8.35;;;4.22;;
78889;SDS011;68279;48.964;14.502;2024-03-23T03:09:43;5.50;;;3.10;;
78889;SDS011;68279;48.964;14.502;2024-03-23T03:12:09;6.35;;;3.50;;
78889;SDS011;68279;48.964;14.502;2024-03-23T03:14:35;4.97;;;3.55;;
78889;SDS011;68279;48.964;14.502;2024-03-23T03:17:00;6.60;;;3.58;;
78889;SDS011;68279;48.964;14.502;2024-03-23T03:19:26;6.53;;;3.75;;
78889;SDS011;68279;48.964;14.502;2024-03-23T03:21:52;8.93;;;4.85;;
78889;SDS011;68279;48.964;14.502;2024-03-23T03:24:18;8.50;;;4.07;;
78889;SDS011;68279;48.964;14.502;2024-03-23T03:26:43;6.30;;;3.53;;
78889;SDS011;68279;48.964;14.502;2024-03-23T03:29:09;9.25;;;4.35;;
78889;SDS011;68279;48.964;14.502;2024-03-23T03:31:35;6.05;;;3.58;;
78889;SDS011;68279;48.964;14.502;2024-03-23T03:34:01;6.72;;;3.72;;
78889;SDS011;68279;48.964;14.502;2024-03-23T03:36:27;5.93;;;3.45;;
78889;SDS011;68279;48.964;14.502;2024-03-23T03:38:53;8.95;;;4.10;;
78889;SDS011;68279;48.964;14.502;2024-03-23T03:41:18;9.70;;;3.90;;
78889;SDS011;68279;48.964;14.502;2024-03-23T03:43:44;7.47;;;4.30;;
78889;SDS011;68279;48.964;14.502;2024-03-23T03:46:10;8.07;;;3.75;;
78889;SDS011;68279;48.964;14.502;2024-03-23T03:48:36;6.35;;;3.17;;
78889;SDS011;68279;48.964;14.502;2024-03-23T03:51:02;6.47;;;3.88;;
78889;SDS011;68279;48.964;14.502;2024-03-23T03:53:27;7.03;;;3.72;;
78889;SDS011;68279;48.964;14.502;2024-03-23T03:55:53;6.00;;;3.33;;
78889;SDS011;68279;48.964;14.502;2024-03-23T03:58:19;8.30;;;4.55;;
78889;SDS011;68279;48.964;14.502;2024-03-23T04:00:44;8.90;;;3.97;;
78889;SDS011;68279;48.964;14.502;2024-03-23T04:03:10;8.82;;;4.30;;
78889;SDS011;68279;48.964;14.502;2024-03-23T04:05:36;7.47;;;3.63;;
78889;SDS011;68279;48.964;14.502;2024-03-23T04:08:01;9.18;;;4.15;;
78889;SDS011;68279;48.964;14.502;2024-03-23T04:10:27;8.63;;;4.43;;
78889;SDS011;68279;48.964;14.502;2024-03-23T04:12:52;7.82;;;3.92;;
78889;SDS011;68279;48.964;14.502;2024-03-23T04:15:19;7.57;;;4.03;;
78889;SDS011;68279;48.964;14.502;2024-03-23T04:17:45;7.88;;;4.20;;
78889;SDS011;68279;48.964;14.502;2024-03-23T04:20:11;8.45;;;4.38;;
78889;SDS011;68279;48.964;14.502;2024-03-23T04:22:39;9.50;;;4.55;;
78889;SDS011;68279;48.964;14.502;2024-03-23T04:25:05;6.45;;;5.00;;
78889;SDS011;68279;48.964;14.502;2024-03-23T04:27:36;6.57;;;3.17;;
78889;SDS011;68279;48.964;14.502;2024-03-23T04:30:06;6.38;;;4.00;;
78889;SDS011;68279;48.964;14.502;2024-03-23T04:32:36;7.93;;;3.47;;
78889;SDS011;68279;48.964;14.502;2024-03-23T04:35:02;12.50;;;5.03;;
78889;SDS011;68279;48.964;14.502;2024-03-23T04:37:31;7.05;;;4.45;;
78889;SDS011;68279;48.964;14.502;2024-03-23T04:39:59;7.75;;;4.22;;
78889;SDS011;68279;48.964;14.502;2024-03-23T04:42:26;8.05;;;3.83;;
78889;SDS011;68279;48.964;14.502;2024-03-23T04:44:52;7.85;;;3.70;;
78889;SDS011;68279;48.964;14.502;2024-03-23T04:47:18;6.65;;;3.75;;
78889;SDS011;68279;48.964;14.502;2024-03-23T04:49:44;6.50;;;3.10;;
78889;SDS011;68279;48.964;14.502;2024-03-23T04:52:09;8.15;;;3.65;;
78889;SDS011;68279;48.964;14.502;2024-03-23T04:54:35;6.47;;;3.88;;
78889;SDS011;68279;48.964;14.502;2024-03-23T04:57:00;7.05;;;3.75;;
78889;SDS011;68279;48.964;14.502;2024-03-23T04:59:26;7.82;;;3.65;;
78889;SDS011;68279;48.964;14.502;2024-03-23T05:01:52;7.53;;;3.95;;
78889;SDS011;68279;48.964;14.502;2024-03-23T05:04:17;9.20;;;4.78;;
78889;SDS011;68279;48.964;14.502;2024-03-23T05:06:43;7.45;;;4.38;;
78889;SDS011;68279;48.964;14.502;2024-03-23T05:09:08;8.55;;;3.72;;
78889;SDS011;68279;48.964;14.502;2024-03-23T05:11:37;7.05;;;3.90;;
78889;SDS011;68279;48.964;14.502;2024-03-23T05:14:03;7.28;;;4.47;;
78889;SDS011;68279;48.964;14.502;2024-03-23T05:16:28;8.13;;;4.68;;
78889;SDS011;68279;48.964;14.502;2024-03-23T05:18:54;6.97;;;3.67;;
78889;SDS011;68279;48.964;14.502;2024-03-23T05:21:19;7.78;;;4.47;;
78889;SDS011;68279;48.964;14.502;2024-03-23T05:23:45;9.85;;;5.05;;
78889;SDS011;68279;48.964;14.502;2024-03-23T05:26:10;9.75;;;4.80;;
78889;SDS011;68279;48.964;14.502;2024-03-23T05:28:36;7.95;;;3.72;;
78889;SDS011;68279;48.964;14.502;2024-03-23T05:31:01;8.00;;;4.88;;
78889;SDS011;68279;48.964;14.502;2024-03-23T05:33:27;9.35;;;4.60;;
78889;SDS011;68279;48.964;14.502;2024-03-23T05:35:59;8.48;;;4.47;;
78889;SDS011;68279;48.964;14.502;2024-03-23T05:38:26;8.88;;;4.63;;
78889;SDS011;68279;48.964;14.502;2024-03-23T05:40:54;10.48;;;4.18;;
78889;SDS011;68279;48.964;14.502;2024-03-23T05:43:20;8.63;;;4.63;;
78889;SDS011;68279;48.964;14.502;2024-03-23T05:45:46;7.43;;;3.63;;
78889;SDS011;68279;48.964;14.502;2024-03-23T05:48:17;8.20;;;4.15;;
78889;SDS011;68279;48.964;14.502;2024-03-23T05:50:43;10.20;;;4.25;;
78889;SDS011;68279;48.964;14.502;2024-03-23T05:53:09;6.38;;;4.03;;
78889;SDS011;68279;48.964;14.502;2024-03-23T05:55:35;7.65;;;4.78;;
78889;SDS011;68279;48.964;14.502;2024-03-23T05:58:00;4.95;;;3.20;;
78889;SDS011;68279;48.964;14.502;2024-03-23T06:00:26;7.70;;;4.68;;
78889;SDS011;68279;48.964;14.502;2024-03-23T06:02:52;9.30;;;3.97;;
78889;SDS011;68279;48.964;14.502;2024-03-23T06:05:17;6.80;;;4.00;;
78889;SDS011;68279;48.964;14.502;2024-03-23T06:07:43;7.80;;;4.78;;
78889;SDS011;68279;48.964;14.502;2024-03-23T06:10:09;9.23;;;4.03;;
78889;SDS011;68279;48.964;14.502;2024-03-23T06:12:34;6.00;;;3.85;;
78889;SDS011;68279;48.964;14.502;2024-03-23T06:15:00;7.60;;;4.40;;
78889;SDS011;68279;48.964;14.502;2024-03-23T06:17:25;7.28;;;4.47;;
78889;SDS011;68279;48.964;14.502;2024-03-23T06:19:51;7.10;;;3.33;;
78889;SDS011;68279;48.964;14.502;2024-03-23T06:22:17;6.93;;;3.50;;
78889;SDS011;68279;48.964;14.502;2024-03-23T06:24:42;5.70;;;3.70;;
78889;SDS011;68279;48.964;14.502;2024-03-23T06:27:08;6.82;;;3.65;;
78889;SDS011;68279;48.964;14.502;2024-03-23T06:29:33;6.53;;;2.88;;
78889;SDS011;68279;48.964;14.502;2024-03-23T06:31:59;8.32;;;3.50;;
78889;SDS011;68279;48.964;14.502;2024-03-23T06:34:25;4.90;;;3.08;;
78889;SDS011;68279;48.964;14.502;2024-03-23T06:36:50;6.80;;;3.08;;
78889;SDS011;68279;48.964;14.502;2024-03-23T06:39:16;7.45;;;3.38;;
78889;SDS011;68279;48.964;14.502;2024-03-23T06:41:42;6.40;;;3.30;;
78889;SDS011;68279;48.964;14.502;2024-03-23T06:44:08;6.65;;;3.15;;
78889;SDS011;68279;48.964;14.502;2024-03-23T06:46:33;6.57;;;3.25;;
78889;SDS011;68279;48.964;14.502;2024-03-23T06:48:59;4.25;;;2.60;;
78889;SDS011;68279;48.964;14.502;2024-03-23T06:51:25;6.15;;;3.10;;
78889;SDS011;68279;48.964;14.502;2024-03-23T06:53:50;4.68;;;3.08;;
78889;SDS011;68279;48.964;14.502;2024-03-23T06:56:16;6.35;;;3.67;;
78889;SDS011;68279;48.964;14.502;2024-03-23T06:58:41;4.22;;;2.75;;
78889;SDS011;68279;48.964;14.502;2024-03-23T07:01:07;4.50;;;2.15;;
78889;SDS011;68279;48.964;14.502;2024-03-23T07:03:33;6.90;;;3.17;;
78889;SDS011;68279;48.964;14.502;2024-03-23T07:05:58;5.75;;;3.10;;
78889;SDS011;68279;48.964;14.502;2024-03-23T07:08:24;5.88;;;3.05;;
78889;SDS011;68279;48.964;14.502;2024-03-23T07:10:50;4.07;;;2.85;;
78889;SDS011;68279;48.964;14.502;2024-03-23T07:13:15;3.67;;;2.65;;
78889;SDS011;68279;48.964;14.502;2024-03-23T07:15:42;5.25;;;2.70;;
78889;SDS011;68279;48.964;14.502;2024-03-23T07:18:08;4.78;;;2.28;;
78889;SDS011;68279;48.964;14.502;2024-03-23T07:20:34;2.95;;;1.85;;
78889;SDS011;68279;48.964;14.502;2024-03-23T07:22:59;5.15;;;1.80;;
78889;SDS011;68279;48.964;14.502;2024-03-23T07:25:25;3.85;;;1.92;;
78889;SDS011;68279;48.964;14.502;2024-03-23T07:27:53;4.47;;;2.30;;
78889;SDS011;68279;48.964;14.502;2024-03-23T07:30:18;3.05;;;2.00;;
78889;SDS011;68279;48.964;14.502;2024-03-23T07:32:44;2.90;;;1.70;;
78889;SDS011;68279;48.964;14.502;2024-03-23T07:35:10;4.05;;;2.20;;
78889;SDS011;68279;48.964;14.502;2024-03-23T07:37:35;3.50;;;1.92;;
78889;SDS011;68279;48.964;14.502;2024-03-23T07:40:01;3.60;;;2.35;;
78889;SDS011;68279;48.964;14.502;2024-03-23T07:42:26;3.47;;;1.80;;
78889;SDS011;68279;48.964;14.502;2024-03-23T07:44:54;2.05;;;1.23;;
78889;SDS011;68279;48.964;14.502;2024-03-23T07:47:22;3.30;;;2.13;;
78889;SDS011;68279;48.964;14.502;2024-03-23T07:49:48;2.15;;;1.38;;
78889;SDS011;68279;48.964;14.502;2024-03-23T07:52:14;3.15;;;1.38;;
78889;SDS011;68279;48.964;14.502;2024-03-23T07:54:39;2.13;;;1.27;;
78889;SDS011;68279;48.964;14.502;2024-03-23T07:57:05;3.42;;;1.98;;
78889;SDS011;68279;48.964;14.502;2024-03-23T07:59:32;3.38;;;1.65;;
78889;SDS011;68279;48.964;14.502;2024-03-23T08:01:59;4.28;;;1.40;;
78889;SDS011;68279;48.964;14.502;2024-03-23T08:04:27;2.67;;;1.58;;
78889;SDS011;68279;48.964;14.502;2024-03-23T08:06:52;1.95;;;1.02;;
78889;SDS011;68279;48.964;14.502;2024-03-23T08:09:18;3.13;;;1.77;;
78889;SDS011;68279;48.964;14.502;2024-03-23T08:11:44;1.88;;;1.20;;
78889;SDS011;68279;48.964;14.502;2024-03-23T08:14:11;3.35;;;1.95;;
78889;SDS011;68279;48.964;14.502;2024-03-23T08:16:37;2.42;;;1.13;;
78889;SDS011;68279;48.964;14.502;2024-03-23T08:19:03;3.00;;;1.40;;
78889;SDS011;68279;48.964;14.502;2024-03-23T08:21:30;2.63;;;1.50;;
78889;SDS011;68279;48.964;14.502;2024-03-23T08:23:55;2.67;;;1.00;;
78889;SDS011;68279;48.964;14.502;2024-03-23T08:26:21;2.40;;;1.42;;
78889;SDS011;68279;48.964;14.502;2024-03-23T08:28:46;2.70;;;1.35;;
78889;SDS011;68279;48.964;14.502;2024-03-23T08:31:13;3.30;;;1.20;;
78889;SDS011;68279;48.964;14.502;2024-03-23T08:33:40;2.78;;;1.45;;
78889;SDS011;68279;48.964;14.502;2024-03-23T08:36:08;2.10;;;1.38;;
78889;SDS011;68279;48.964;14.502;2024-03-23T08:38:37;2.97;;;1.83;;
78889;SDS011;68279;48.964;14.502;2024-03-23T08:41:06;1.70;;;0.82;;
78889;SDS011;68279;48.964;14.502;2024-03-23T08:43:37;2.67;;;1.73;;
78889;SDS011;68279;48.964;14.502;2024-03-23T08:46:05;2.08;;;1.38;;
78889;SDS011;68279;48.964;14.502;2024-03-23T08:48:31;2.17;;;1.52;;
78889;SDS011;68279;48.964;14.502;2024-03-23T08:51:03;2.35;;;1.58;;
78889;SDS011;68279;48.964;14.502;2024-03-23T08:53:29;2.42;;;1.27;;
78889;SDS011;68279;48.964;14.502;2024-03-23T08:55:56;2.90;;;1.35;;
78889;SDS011;68279;48.964;14.502;2024-03-23T08:58:23;2.28;;;1.25;;
78889;SDS011;68279;48.964;14.502;2024-03-23T09:00:50;2.80;;;1.55;;
78889;SDS011;68279;48.964;14.502;2024-03-23T09:03:21;2.53;;;2.05;;
78889;SDS011;68279;48.964;14.502;2024-03-23T09:05:49;2.05;;;1.15;;
78889;SDS011;68279;48.964;14.502;2024-03-23T09:08:14;2.50;;;1.08;;
78889;SDS011;68279;48.964;14.502;2024-03-23T09:10:40;1.98;;;1.10;;
78889;SDS011;68279;48.964;14.502;2024-03-23T09:13:07;2.50;;;1.13;;
78889;SDS011;68279;48.964;14.502;2024-03-23T09:15:34;2.05;;;1.13;;
78889;SDS011;68279;48.964;14.502;2024-03-23T09:18:03;2.65;;;1.30;;
78889;SDS011;68279;48.964;14.502;2024-03-23T09:20:32;2.53;;;1.13;;
78889;SDS011;68279;48.964;14.502;2024-03-23T09:22:58;2.90;;;1.00;;
78889;SDS011;68279;48.964;14.502;2024-03-23T09:25:25;2.17;;;1.25;;
78889;SDS011;68279;48.964;14.502;2024-03-23T09:27:51;2.38;;;1.25;;
78889;SDS011;68279;48.964;14.502;2024-03-23T09:30:17;2.17;;;1.48;;
78889;SDS011;68279;48.964;14.502;2024-03-23T09:32:43;3.58;;;1.17;;
78889;SDS011;68279;48.964;14.502;2024-03-23T09:35:09;1.95;;;1.20;;
78889;SDS011;68279;48.964;14.502;2024-03-23T09:37:35;2.00;;;1.50;;
78889;SDS011;68279;48.964;14.502;2024-03-23T09:40:01;2.20;;;1.40;;
78889;SDS011;68279;48.964;14.502;2024-03-23T09:42:28;2.40;;;1.48;;
78889;SDS011;68279;48.964;14.502;2024-03-23T09:44:53;1.55;;;0.60;;
78889;SDS011;68279;48.964;14.502;2024-03-23T09:47:21;1.77;;;1.10;;
78889;SDS011;68279;48.964;14.502;2024-03-23T09:49:47;4.10;;;1.52;;
78889;SDS011;68279;48.964;14.502;2024-03-23T09:52:13;3.85;;;1.88;;
78889;SDS011;68279;48.964;14.502;2024-03-23T09:54:39;2.38;;;1.38;;
78889;SDS011;68279;48.964;14.502;2024-03-23T09:57:05;2.35;;;1.10;;
78889;SDS011;68279;48.964;14.502;2024-03-23T09:59:31;2.40;;;1.02;;
78889;SDS011;68279;48.964;14.502;2024-03-23T10:01:58;1.98;;;0.73;;
78889;SDS011;68279;48.964;14.502;2024-03-23T10:04:36;2.65;;;1.60;;
78889;SDS011;68279;48.964;14.502;2024-03-23T10:09:39;4.53;;;1.17;;
78889;SDS011;68279;48.964;14.502;2024-03-23T10:12:08;2.20;;;1.17;;
78889;SDS011;68279;48.964;14.502;2024-03-23T10:14:41;2.17;;;1.27;;
78889;SDS011;68279;48.964;14.502;2024-03-23T10:17:16;2.25;;;1.05;;
78889;SDS011;68279;48.964;14.502;2024-03-23T10:19:49;2.20;;;1.00;;
78889;SDS011;68279;48.964;14.502;2024-03-23T10:22:20;2.67;;;1.13;;
78889;SDS011;68279;48.964;14.502;2024-03-23T10:24:47;2.13;;;1.20;;
78889;SDS011;68279;48.964;14.502;2024-03-23T10:27:17;1.55;;;0.85;;
78889;SDS011;68279;48.964;14.502;2024-03-23T10:29:49;3.13;;;1.73;;
78889;SDS011;68279;48.964;14.502;2024-03-23T10:32:18;2.10;;;0.90;;
78889;SDS011;68279;48.964;14.502;2024-03-23T10:34:45;1.92;;;1.23;;
78889;SDS011;68279;48.964;14.502;2024-03-23T10:37:11;1.67;;;0.98;;
78889;SDS011;68279;48.964;14.502;2024-03-23T10:39:39;1.55;;;0.90;;
78889;SDS011;68279;48.964;14.502;2024-03-23T10:42:06;2.15;;;1.00;;
78889;SDS011;68279;48.964;14.502;2024-03-23T10:44:33;1.20;;;0.60;;
78889;SDS011;68279;48.964;14.502;2024-03-23T10:47:00;0.50;;;0.40;;
78889;SDS011;68279;48.964;14.502;2024-03-23T10:49:30;1.38;;;0.93;;
78889;SDS011;68279;48.964;14.502;2024-03-23T10:51:58;1.02;;;0.40;;
78889;SDS011;68279;48.964;14.502;2024-03-23T10:54:24;0.70;;;0.68;;
78889;SDS011;68279;48.964;14.502;2024-03-23T10:56:56;0.98;;;0.70;;
78889;SDS011;68279;48.964;14.502;2024-03-23T10:59:27;0.82;;;0.38;;
78889;SDS011;68279;48.964;14.502;2024-03-23T11:01:59;0.70;;;0.45;;
78889;SDS011;68279;48.964;14.502;2024-03-23T11:04:32;1.60;;;0.73;;
78889;SDS011;68279;48.964;14.502;2024-03-23T11:09:51;0.28;;;0.10;;
78889;SDS011;68279;48.964;14.502;2024-03-23T11:14:52;0.73;;;0.22;;
78889;SDS011;68279;48.964;14.502;2024-03-23T11:17:20;0.43;;;0.30;;
78889;SDS011;68279;48.964;14.502;2024-03-23T11:19:57;0.98;;;0.57;;
78889;SDS011;68279;48.964;14.502;2024-03-23T11:25:03;1.02;;;0.60;;
78889;SDS011;68279;48.964;14.502;2024-03-23T11:27:37;1.25;;;0.73;;
78889;SDS011;68279;48.964;14.502;2024-03-23T11:30:12;0.88;;;0.65;;
78889;SDS011;68279;48.964;14.502;2024-03-23T11:32:42;1.10;;;0.43;;
78889;SDS011;68279;48.964;14.502;2024-03-23T11:35:24;0.63;;;0.38;;
78889;SDS011;68279;48.964;14.502;2024-03-23T11:38:11;0.82;;;0.45;;
78889;SDS011;68279;48.964;14.502;2024-03-23T11:40:40;0.63;;;0.40;;
78889;SDS011;68279;48.964;14.502;2024-03-23T11:43:07;0.93;;;0.70;;
78889;SDS011;68279;48.964;14.502;2024-03-23T11:45:36;0.63;;;0.40;;
78889;SDS011;68279;48.964;14.502;2024-03-23T11:48:04;1.45;;;0.63;;
78889;SDS011;68279;48.964;14.502;2024-03-23T11:50:31;1.13;;;0.50;;
78889;SDS011;68279;48.964;14.502;2024-03-23T11:53:13;0.80;;;0.45;;
78889;SDS011;68279;48.964;14.502;2024-03-23T11:55:47;1.10;;;0.50;;
78889;SDS011;68279;48.964;14.502;2024-03-23T11:58:15;1.15;;;0.55;;
78889;SDS011;68279;48.964;14.502;2024-03-23T12:00:42;1.67;;;1.02;;
78889;SDS011;68279;48.964;14.502;2024-03-23T12:03:14;1.83;;;0.63;;
78889;SDS011;68279;48.964;14.502;2024-03-23T12:05:41;1.15;;;0.52;;
78889;SDS011;68279;48.964;14.502;2024-03-23T12:08:16;1.17;;;0.60;;
78889;SDS011;68279;48.964;14.502;2024-03-23T12:10:50;1.60;;;0.65;;
78889;SDS011;68279;48.964;14.502;2024-03-23T12:13:17;2.88;;;0.75;;
78889;SDS011;68279;48.964;14.502;2024-03-23T12:15:49;0.80;;;0.35;;
78889;SDS011;68279;48.964;14.502;2024-03-23T12:18:36;1.70;;;0.80;;
78889;SDS011;68279;48.964;14.502;2024-03-23T12:21:03;2.05;;;0.70;;
78889;SDS011;68279;48.964;14.502;2024-03-23T12:23:30;2.28;;;1.08;;
78889;SDS011;68279;48.964;14.502;2024-03-23T12:25:55;1.50;;;0.70;;
78889;SDS011;68279;48.964;14.502;2024-03-23T12:28:21;1.35;;;0.68;;
78889;SDS011;68279;48.964;14.502;2024-03-23T12:30:46;2.17;;;0.98;;
78889;SDS011;68279;48.964;14.502;2024-03-23T12:33:14;1.33;;;0.65;;
78889;SDS011;68279;48.964;14.502;2024-03-23T12:35:39;1.02;;;0.50;;
78889;SDS011;68279;48.964;14.502;2024-03-23T12:38:05;1.08;;;0.70;;
78889;SDS011;68279;48.964;14.502;2024-03-23T12:40:31;1.23;;;0.85;;
78889;SDS011;68279;48.964;14.502;2024-03-23T12:42:56;0.90;;;0.52;;
78889;SDS011;68279;48.964;14.502;2024-03-23T12:45:23;0.88;;;0.40;;
78889;SDS011;68279;48.964;14.502;2024-03-23T12:47:50;0.93;;;0.65;;
78889;SDS011;68279;48.964;14.502;2024-03-23T12:50:23;1.00;;;0.68;;
78889;SDS011;68279;48.964;14.502;2024-03-23T12:55:15;1.15;;;0.50;;
78889;SDS011;68279;48.964;14.502;2024-03-23T12:57:41;1.17;;;0.73;;
78889;SDS011;68279;48.964;14.502;2024-03-23T13:00:07;0.80;;;0.57;;
78889;SDS011;68279;48.964;14.502;2024-03-23T13:02:37;2.28;;;0.65;;
78889;SDS011;68279;48.964;14.502;2024-03-23T13:05:05;1.10;;;0.70;;
78889;SDS011;68279;48.964;14.502;2024-03-23T13:07:34;0.57;;;0.32;;
78889;SDS011;68279;48.964;14.502;2024-03-23T13:10:01;1.02;;;0.52;;
78889;SDS011;68279;48.964;14.502;2024-03-23T13:12:27;1.88;;;0.70;;
78889;SDS011;68279;48.964;14.502;2024-03-23T13:14:53;1.40;;;1.05;;
78889;SDS011;68279;48.964;14.502;2024-03-23T13:17:18;0.90;;;0.70;;
78889;SDS011;68279;48.964;14.502;2024-03-23T13:19:44;1.25;;;0.73;;
78889;SDS011;68279;48.964;14.502;2024-03-23T13:22:09;0.68;;;0.45;;
78889;SDS011;68279;48.964;14.502;2024-03-23T13:24:38;0.98;;;0.70;;
78889;SDS011;68279;48.964;14.502;2024-03-23T13:27:04;0.90;;;0.90;;
78889;SDS011;68279;48.964;14.502;2024-03-23T13:29:33;0.88;;;0.57;;
78889;SDS011;68279;48.964;14.502;2024-03-23T13:32:02;1.52;;;1.02;;
78889;SDS011;68279;48.964;14.502;2024-03-23T13:34:29;1.33;;;0.60;;
78889;SDS011;68279;48.964;14.502;2024-03-23T13:36:54;1.67;;;0.73;;
78889;SDS011;68279;48.964;14.502;2024-03-23T13:39:21;0.93;;;0.93;;
78889;SDS011;68279;48.964;14.502;2024-03-23T13:41:47;1.30;;;0.68;;
78889;SDS011;68279;48.964;14.502;2024-03-23T13:44:12;0.68;;;0.52;;
78889;SDS011;68279;48.964;14.502;2024-03-23T13:46:42;1.25;;;0.60;;
78889;SDS011;68279;48.964;14.502;2024-03-23T13:51:53;1.45;;;0.47;;
78889;SDS011;68279;48.964;14.502;2024-03-23T13:54:25;0.63;;;0.32;;
78889;SDS011;68279;48.964;14.502;2024-03-23T13:56:51;0.85;;;0.40;;
78889;SDS011;68279;48.964;14.502;2024-03-23T13:59:17;1.15;;;0.75;;
78889;SDS011;68279;48.964;14.502;2024-03-23T14:01:44;1.00;;;0.57;;
78889;SDS011;68279;48.964;14.502;2024-03-23T14:04:11;0.77;;;0.30;;
78889;SDS011;68279;48.964;14.502;2024-03-23T14:06:37;0.52;;;0.32;;
78889;SDS011;68279;48.964;14.502;2024-03-23T14:09:02;0.75;;;0.50;;
78889;SDS011;68279;48.964;14.502;2024-03-23T14:14:00;1.05;;;0.50;;
78889;SDS011;68279;48.964;14.502;2024-03-23T14:16:25;0.63;;;0.63;;
78889;SDS011;68279;48.964;14.502;2024-03-23T14:18:51;1.02;;;0.50;;
78889;SDS011;68279;48.964;14.502;2024-03-23T14:21:17;0.40;;;0.32;;
78889;SDS011;68279;48.964;14.502;2024-03-23T14:23:42;0.45;;;0.30;;
78889;SDS011;68279;48.964;14.502;2024-03-23T14:26:08;3.22;;;1.08;;
78889;SDS011;68279;48.964;14.502;2024-03-23T14:28:34;4.13;;;1.40;;
78889;SDS011;68279;48.964;14.502;2024-03-23T14:31:00;1.15;;;0.82;;
78889;SDS011;68279;48.964;14.502;2024-03-23T14:33:26;1.42;;;0.95;;
78889;SDS011;68279;48.964;14.502;2024-03-23T14:35:52;1.23;;;0.63;;
78889;SDS011;68279;48.964;14.502;2024-03-23T14:38:19;1.75;;;0.60;;
78889;SDS011;68279;48.964;14.502;2024-03-23T14:40:48;1.88;;;0.93;;
78889;SDS011;68279;48.964;14.502;2024-03-23T14:43:14;2.03;;;0.80;;
78889;SDS011;68279;48.964;14.502;2024-03-23T14:46:05;1.60;;;0.77;;
78889;SDS011;68279;48.964;14.502;2024-03-23T14:48:31;2.15;;;0.60;;
78889;SDS011;68279;48.964;14.502;2024-03-23T14:50:58;1.25;;;0.68;;
78889;SDS011;68279;48.964;14.502;2024-03-23T14:53:24;1.00;;;0.50;;
78889;SDS011;68279;48.964;14.502;2024-03-23T14:55:50;1.85;;;0.82;;
78889;SDS011;68279;48.964;14.502;2024-03-23T14:58:16;2.08;;;0.60;;
78889;SDS011;68279;48.964;14.502;2024-03-23T15:00:41;0.60;;;0.40;;
78889;SDS011;68279;48.964;14.502;2024-03-23T15:03:07;1.23;;;0.45;;
78889;SDS011;68279;48.964;14.502;2024-03-23T15:05:33;1.58;;;0.50;;
78889;SDS011;68279;48.964;14.502;2024-03-23T15:07:58;1.20;;;0.50;;
78889;SDS011;68279;48.964;14.502;2024-03-23T15:10:24;1.88;;;1.38;;
78889;SDS011;68279;48.964;14.502;2024-03-23T15:12:49;1.25;;;0.70;;
78889;SDS011;68279;48.964;14.502;2024-03-23T15:15:15;2.05;;;0.57;;
78889;SDS011;68279;48.964;14.502;2024-03-23T15:17:41;1.63;;;0.80;;
78889;SDS011;68279;48.964;14.502;2024-03-23T15:20:09;0.98;;;0.70;;
78889;SDS011;68279;48.964;14.502;2024-03-23T15:22:37;1.05;;;0.65;;
78889;SDS011;68279;48.964;14.502;2024-03-23T15:25:02;1.63;;;0.50;;
78889;SDS011;68279;48.964;14.502;2024-03-23T15:27:28;0.80;;;0.50;;
78889;SDS011;68279;48.964;14.502;2024-03-23T15:29:55;1.15;;;0.45;;
78889;SDS011;68279;48.964;14.502;2024-03-23T15:32:22;1.73;;;0.63;;
78889;SDS011;68279;48.964;14.502;2024-03-23T15:34:48;2.60;;;1.15;;
78889;SDS011;68279;48.964;14.502;2024-03-23T15:37:14;0.60;;;0.43;;
78889;SDS011;68279;48.964;14.502;2024-03-23T15:39:40;2.33;;;0.82;;
78889;SDS011;68279;48.964;14.502;2024-03-23T15:42:09;2.20;;;1.05;;
78889;SDS011;68279;48.964;14.502;2024-03-23T15:44:36;2.08;;;0.70;;